createdAt,value
2022-11-17T00:02:10.626Z,17.98
2022-11-17T00:05:13.601Z,18.95
2022-11-17T00:08:15.731Z,17.80
2022-11-17T00:11:18.212Z,17.77
2022-11-17T00:14:40.586Z,16.70
2022-11-17T00:17:42.781Z,16.35
2022-11-17T00:21:20.270Z,15.18
2022-11-17T00:24:24.132Z,15.90
2022-11-17T00:27:26.266Z,17.58
2022-11-17T00:30:47.197Z,19.05
2022-11-17T00:34:07.741Z,17.42
2022-11-17T00:37:11.187Z,17.80
2022-11-17T00:40:14.072Z,17.27
2022-11-17T00:43:16.238Z,18.02
2022-11-17T00:46:18.341Z,16.95
2022-11-17T00:49:21.636Z,17.60
2022-11-17T00:52:23.767Z,16.17
2022-11-17T00:55:26.100Z,16.93
2022-11-17T00:58:28.284Z,15.80
2022-11-17T01:01:31.105Z,16.48
2022-11-17T01:04:33.364Z,16.25
2022-11-17T01:07:35.559Z,16.60
2022-11-17T01:10:37.777Z,16.07
2022-11-17T01:13:40.774Z,15.95
2022-11-17T01:16:43.235Z,15.68
2022-11-17T01:19:46.050Z,15.63
2022-11-17T01:22:48.303Z,15.10
2022-11-17T01:25:50.418Z,16.00
2022-11-17T01:28:53.700Z,16.17
2022-11-17T01:31:56.024Z,16.35
2022-11-17T01:34:58.171Z,16.10
2022-11-17T01:38:00.310Z,18.20
2022-11-17T01:41:04.569Z,16.47
2022-11-17T01:44:50.383Z,16.58
2022-11-17T01:47:58.589Z,16.90
2022-11-17T01:51:01.076Z,18.40
2022-11-17T01:54:03.543Z,16.90
2022-11-17T01:57:12.304Z,16.57
2022-11-17T02:00:15.121Z,17.70
2022-11-17T02:03:17.318Z,17.80
2022-11-17T02:06:28.916Z,16.70
2022-11-17T02:09:31.930Z,16.48
2022-11-17T02:12:35.587Z,16.70
2022-11-17T02:15:37.728Z,16.73
2022-11-17T02:18:41.500Z,16.48
2022-11-17T02:21:52.353Z,17.10
2022-11-17T02:25:10.139Z,17.63
2022-11-17T02:28:41.795Z,16.63
2022-11-17T02:31:43.891Z,18.48
2022-11-17T02:34:47.882Z,17.10
2022-11-17T02:38:28.431Z,17.02
2022-11-17T02:41:38.802Z,18.70
2022-11-17T02:44:55.588Z,20.37
2022-11-17T02:47:58.682Z,20.40
2022-11-17T02:51:02.567Z,19.92
2022-11-17T02:54:05.969Z,19.92
2022-11-17T02:57:27.908Z,20.40
2022-11-17T03:00:32.129Z,19.97
2022-11-17T03:03:50.549Z,18.85
2022-11-17T03:07:00.618Z,19.52
2022-11-17T03:10:15.929Z,19.40
2022-11-17T03:13:34.560Z,18.92
2022-11-17T03:16:57.403Z,19.37
2022-11-17T03:20:13.718Z,19.95
2022-11-17T03:23:20.881Z,19.05
2022-11-17T03:26:28.825Z,20.02
2022-11-17T03:29:32.045Z,21.00
2022-11-17T03:32:38.024Z,18.97
2022-11-17T03:35:49.341Z,19.48
2022-11-17T03:38:59.196Z,18.00
2022-11-17T03:42:23.654Z,19.00
2022-11-17T03:45:28.676Z,18.58
2022-11-17T03:48:43.679Z,18.60
2022-11-17T03:51:45.978Z,18.77
2022-11-17T03:54:48.419Z,18.55
2022-11-17T03:57:56.513Z,18.23
2022-11-17T04:00:59.946Z,17.52
2022-11-17T04:04:02.427Z,16.90
2022-11-17T04:07:04.583Z,16.65
2022-11-17T04:10:09.339Z,16.90
2022-11-17T04:13:30.339Z,18.10
2022-11-17T04:16:32.500Z,16.85
2022-11-17T04:19:34.653Z,16.73
2022-11-17T04:22:36.841Z,17.45
2022-11-17T04:25:59.974Z,16.27
2022-11-17T04:29:02.137Z,14.13
2022-11-17T04:32:04.477Z,15.55
2022-11-17T04:35:07.541Z,15.67
2022-11-17T04:38:10.055Z,15.32
2022-11-17T04:41:32.821Z,16.55
2022-11-17T04:44:34.975Z,15.32
2022-11-17T04:47:37.085Z,15.88
2022-11-17T04:50:39.237Z,14.80
2022-11-17T04:53:42.165Z,15.38
2022-11-17T04:56:44.888Z,15.05
2022-11-17T04:59:47.110Z,15.32
2022-11-17T05:02:49.267Z,14.65
2022-11-17T05:05:51.469Z,15.23
2022-11-17T05:08:58.079Z,16.58
2022-11-17T05:12:18.614Z,15.90
2022-11-17T05:15:40.677Z,15.13
2022-11-17T05:18:43.817Z,15.50
2022-11-17T05:21:46.052Z,15.47
2022-11-17T05:24:48.266Z,16.77
2022-11-17T05:27:50.369Z,16.58
2022-11-17T05:30:52.534Z,17.30
2022-11-17T05:33:55.400Z,17.13
2022-11-17T05:36:57.581Z,17.90
2022-11-17T05:39:59.761Z,17.10
2022-11-17T05:43:01.948Z,16.42
2022-11-17T05:46:04.348Z,17.02
2022-11-17T05:49:06.496Z,15.48
2022-11-17T05:52:08.778Z,14.83
2022-11-17T05:55:10.905Z,16.17
2022-11-17T05:58:26.540Z,14.98
2022-11-17T06:01:30.277Z,15.35
2022-11-17T06:04:32.646Z,16.35
2022-11-17T06:07:36.360Z,15.10
2022-11-17T06:10:38.650Z,15.73
2022-11-17T06:13:40.843Z,16.25
2022-11-17T06:16:44.678Z,14.90
2022-11-17T06:19:53.915Z,15.55
2022-11-17T06:22:57.972Z,15.90
2022-11-17T06:26:03.097Z,16.92
2022-11-17T06:29:05.589Z,16.10
2022-11-17T06:32:07.742Z,18.88
2022-11-17T06:35:10.468Z,16.50
2022-11-17T06:38:12.770Z,20.07
2022-11-17T06:41:15.180Z,19.63
2022-11-17T06:44:17.363Z,24.83
2022-11-17T06:47:19.530Z,25.98
2022-11-17T06:50:21.728Z,22.98
2022-11-17T06:53:26.430Z,21.73
2022-11-17T06:56:28.903Z,19.55
2022-11-17T06:59:33.789Z,16.92
2022-11-17T07:02:39.487Z,15.85
2022-11-17T07:05:41.688Z,15.18
2022-11-17T07:08:45.431Z,17.50
2022-11-17T07:11:47.576Z,17.73
2022-11-17T07:14:49.711Z,17.65
2022-11-17T07:17:52.223Z,16.42
2022-11-17T07:20:54.680Z,14.15
2022-11-17T07:23:56.864Z,11.23
2022-11-17T07:26:59.043Z,10.25
2022-11-17T07:30:01.654Z,11.32
2022-11-17T07:33:03.893Z,11.15
2022-11-17T07:36:09.542Z,11.98
2022-11-17T07:39:14.074Z,11.40
2022-11-17T07:42:19.294Z,11.27
2022-11-17T07:45:31.931Z,13.68
2022-11-17T07:48:35.053Z,12.20
2022-11-17T07:51:37.794Z,12.43
2022-11-17T07:54:40.575Z,13.37
2022-11-17T07:57:42.738Z,12.65
2022-11-17T08:00:44.908Z,12.88
2022-11-17T08:03:47.468Z,12.40
2022-11-17T08:06:49.778Z,12.57
2022-11-17T08:09:51.930Z,13.57
2022-11-17T08:12:54.752Z,14.07
2022-11-17T08:15:57.455Z,14.95
2022-11-17T08:18:59.830Z,15.40
2022-11-17T08:22:02.161Z,15.57
2022-11-17T08:25:04.606Z,14.90
2022-11-17T08:28:06.839Z,14.98
2022-11-17T08:31:09.103Z,13.82
2022-11-17T08:34:11.352Z,14.05
2022-11-17T08:37:13.619Z,14.23
2022-11-17T08:40:16.537Z,14.50
2022-11-17T08:43:18.746Z,14.48
2022-11-17T08:46:20.960Z,16.05
2022-11-17T08:49:23.214Z,14.98
2022-11-17T08:52:28.065Z,16.92
2022-11-17T08:55:30.281Z,16.80
2022-11-17T08:58:32.557Z,18.02
2022-11-17T09:01:34.976Z,18.08
2022-11-17T09:04:37.213Z,16.83
2022-11-17T09:07:39.569Z,17.05
2022-11-17T09:10:41.758Z,15.87
2022-11-17T09:13:45.717Z,15.75
2022-11-17T09:16:47.957Z,15.73
2022-11-17T09:19:51.215Z,15.25
2022-11-17T09:22:53.431Z,14.65
2022-11-17T09:25:55.995Z,15.37
2022-11-17T09:29:04.208Z,14.95
2022-11-17T09:32:06.428Z,13.82
2022-11-17T09:35:09.376Z,14.75
2022-11-17T09:38:11.901Z,14.00
2022-11-17T09:41:31.641Z,12.47
2022-11-17T09:44:40.454Z,12.38
2022-11-17T09:47:46.239Z,13.38
2022-11-17T09:50:50.443Z,11.70
2022-11-17T09:54:16.404Z,12.07
2022-11-17T09:57:41.347Z,11.63
2022-11-17T10:00:49.115Z,11.90
2022-11-17T10:03:51.714Z,11.50
2022-11-17T10:06:53.930Z,11.15
2022-11-17T10:09:56.163Z,10.73
2022-11-17T10:12:58.694Z,12.30
2022-11-17T10:16:04.614Z,11.60
2022-11-17T10:19:18.135Z,11.43
2022-11-17T10:22:34.583Z,11.07
2022-11-17T10:25:42.630Z,11.18
2022-11-17T10:28:44.820Z,10.17
2022-11-17T10:31:46.943Z,9.82
2022-11-17T10:34:49.233Z,9.68
2022-11-17T10:37:55.609Z,9.93
2022-11-17T10:40:59.193Z,8.70
2022-11-17T10:44:04.705Z,7.90
2022-11-17T10:47:25.788Z,8.95
2022-11-17T10:50:28.099Z,8.63
2022-11-17T10:53:38.135Z,8.07
2022-11-17T10:56:46.125Z,7.80
2022-11-17T10:59:56.904Z,6.47
2022-11-17T11:03:23.961Z,6.57
2022-11-17T11:06:29.561Z,7.40
2022-11-17T11:09:32.638Z,6.45
2022-11-17T11:12:56.711Z,6.97
2022-11-17T11:15:59.029Z,7.07
2022-11-17T11:19:01.359Z,6.55
2022-11-17T11:22:29.157Z,6.47
2022-11-17T11:25:38.395Z,6.20
2022-11-17T11:29:00.699Z,6.40
2022-11-17T11:32:24.885Z,6.70
2022-11-17T11:35:46.212Z,6.80
2022-11-17T11:38:53.183Z,6.35
2022-11-17T11:42:14.611Z,6.50
2022-11-17T11:45:35.627Z,6.40
2022-11-17T11:48:41.385Z,6.43
2022-11-17T11:51:47.040Z,6.65
2022-11-17T11:54:55.151Z,6.90
2022-11-17T11:58:24.395Z,6.18
2022-11-17T12:01:30.766Z,6.85
2022-11-17T12:05:10.420Z,6.30
2022-11-17T12:08:15.523Z,6.72
2022-11-17T12:11:36.455Z,6.30
2022-11-17T12:14:38.673Z,6.35
2022-11-17T12:17:52.773Z,6.50
2022-11-17T12:21:02.894Z,5.40
2022-11-17T12:24:47.122Z,6.05
2022-11-17T12:27:52.245Z,5.63
2022-11-17T12:31:08.260Z,5.80
2022-11-17T12:34:42.337Z,5.50
2022-11-17T12:37:44.732Z,5.37
2022-11-17T12:40:46.877Z,5.72
2022-11-17T12:43:49.219Z,5.25
2022-11-17T12:46:55.754Z,5.32
2022-11-17T12:50:07.176Z,5.78
2022-11-17T12:53:09.262Z,5.53
2022-11-17T12:56:26.459Z,5.97
2022-11-17T12:59:37.424Z,5.85
2022-11-17T13:02:47.396Z,5.57
2022-11-17T13:06:33.894Z,5.75
2022-11-17T13:09:36.737Z,5.60
2022-11-17T13:12:38.962Z,5.70
2022-11-17T13:15:41.583Z,5.95
2022-11-17T13:18:44.903Z,5.55
2022-11-17T13:21:47.078Z,5.68
2022-11-17T13:24:50.135Z,5.30
2022-11-17T13:27:57.178Z,6.03
2022-11-17T13:31:02.793Z,5.35
2022-11-17T13:34:13.969Z,5.93
2022-11-17T13:37:19.422Z,5.35
2022-11-17T13:40:22.466Z,5.40
2022-11-17T13:43:26.099Z,5.80
2022-11-17T13:46:28.249Z,6.07
2022-11-17T13:49:39.553Z,5.78
2022-11-17T13:52:46.929Z,6.18
2022-11-17T13:55:49.379Z,6.73
2022-11-17T13:58:52.028Z,6.45
2022-11-17T14:02:16.139Z,6.63
2022-11-17T14:05:19.899Z,6.20
2022-11-17T14:08:28.623Z,6.35
2022-11-17T14:11:31.113Z,6.50
2022-11-17T14:14:39.356Z,6.40
2022-11-17T14:17:41.725Z,6.10
2022-11-17T14:20:44.260Z,6.60
2022-11-17T14:23:46.424Z,6.80
2022-11-17T14:26:48.549Z,6.17
2022-11-17T14:29:50.722Z,7.00
2022-11-17T14:32:52.834Z,7.70
2022-11-17T14:35:57.173Z,6.88
2022-11-17T14:39:01.089Z,7.45
2022-11-17T14:42:03.369Z,7.33
2022-11-17T14:45:05.858Z,7.00
2022-11-17T14:48:07.994Z,12.55
2022-11-17T14:51:10.153Z,9.43
2022-11-17T14:54:12.961Z,8.77
2022-11-17T14:57:15.316Z,9.23
2022-11-17T15:00:20.613Z,8.45
2022-11-17T15:03:23.002Z,9.40
2022-11-17T15:06:25.775Z,11.23
2022-11-17T15:09:28.090Z,12.70
2022-11-17T15:12:30.304Z,12.10
2022-11-17T15:15:33.233Z,11.20
2022-11-17T15:18:35.513Z,10.48
2022-11-17T15:21:37.951Z,10.45
2022-11-17T15:24:40.156Z,10.65
2022-11-17T15:27:42.298Z,10.90
2022-11-17T15:30:44.423Z,12.85
2022-11-17T15:33:47.616Z,15.15
2022-11-17T15:36:49.768Z,18.58
2022-11-17T15:39:51.875Z,21.17
2022-11-17T15:42:54.054Z,23.13
2022-11-17T15:46:08.002Z,21.40
2022-11-17T15:49:11.651Z,18.85
2022-11-17T15:52:13.847Z,20.40
2022-11-17T15:55:15.966Z,20.02
2022-11-17T15:58:18.292Z,21.33
2022-11-17T16:01:28.424Z,20.55
2022-11-17T16:04:30.534Z,18.00
2022-11-17T16:07:32.840Z,18.48
2022-11-17T16:10:35.128Z,18.23
2022-11-17T16:13:40.417Z,17.97
2022-11-17T16:16:45.551Z,17.95
2022-11-17T16:19:47.989Z,16.48
2022-11-17T16:22:50.186Z,16.38
2022-11-17T16:25:52.311Z,16.95
2022-11-17T16:28:58.964Z,20.13
2022-11-17T16:32:01.444Z,18.92
2022-11-17T16:35:03.924Z,17.95
2022-11-17T16:38:06.527Z,23.90
2022-11-17T16:41:08.857Z,24.75
2022-11-17T16:44:13.061Z,19.83
2022-11-17T16:47:15.263Z,16.20
2022-11-17T16:50:17.414Z,15.13
2022-11-17T16:53:19.682Z,15.05
2022-11-17T16:56:22.544Z,13.80
2022-11-17T16:59:24.828Z,14.10
2022-11-17T17:02:27.426Z,14.30
2022-11-17T17:05:30.348Z,20.83
2022-11-17T17:08:33.561Z,25.50
2022-11-17T17:11:40.022Z,28.30
2022-11-17T17:14:42.525Z,28.80
2022-11-17T17:17:45.340Z,20.52
2022-11-17T17:20:52.574Z,15.45
2022-11-17T17:23:55.418Z,12.25
2022-11-17T17:26:57.592Z,12.95
2022-11-17T17:30:00.252Z,14.10
2022-11-17T17:33:02.970Z,14.55
2022-11-17T17:36:09.666Z,13.52
2022-11-17T17:39:20.618Z,12.98
2022-11-17T17:42:23.590Z,14.07
2022-11-17T17:45:25.877Z,13.57
2022-11-17T17:48:31.139Z,13.52
2022-11-17T17:51:37.302Z,15.85
2022-11-17T17:54:39.614Z,14.60
2022-11-17T17:57:42.023Z,14.30
2022-11-17T18:00:44.615Z,15.23
2022-11-17T18:03:49.472Z,15.18
2022-11-17T18:06:53.192Z,16.45
2022-11-17T18:09:56.289Z,17.20
2022-11-17T18:12:58.797Z,24.75
2022-11-17T18:16:06.310Z,32.07
2022-11-17T18:19:10.851Z,27.10
2022-11-17T18:22:13.487Z,26.42
2022-11-17T18:25:18.507Z,22.52
2022-11-17T18:28:21.196Z,21.20
2022-11-17T18:31:26.198Z,20.93
2022-11-17T18:34:28.880Z,23.13
2022-11-17T18:37:36.258Z,23.48
2022-11-17T18:40:38.944Z,29.38
2022-11-17T18:43:42.458Z,31.50
2022-11-17T18:46:45.039Z,36.20
2022-11-17T18:49:47.680Z,38.67
2022-11-17T18:52:50.495Z,39.15
2022-11-17T18:55:53.647Z,40.25
2022-11-17T18:58:55.940Z,39.28
2022-11-17T19:01:58.689Z,40.03
2022-11-17T19:05:01.537Z,39.50
2022-11-17T19:08:04.552Z,39.25
2022-11-17T19:11:08.190Z,38.75
2022-11-17T19:14:10.431Z,39.30
2022-11-17T19:17:13.505Z,40.63
2022-11-17T19:20:16.403Z,41.50
2022-11-17T19:23:19.881Z,65.90
2022-11-17T19:26:25.020Z,38.53
2022-11-17T19:29:27.727Z,42.60
2022-11-17T19:32:31.161Z,41.90
2022-11-17T19:35:38.170Z,42.38
2022-11-17T19:38:41.478Z,41.22
2022-11-17T19:41:45.575Z,38.17
2022-11-17T19:44:56.389Z,36.15
2022-11-17T19:48:10.636Z,34.83
2022-11-17T19:51:20.969Z,33.42
2022-11-17T19:54:23.602Z,33.05
2022-11-17T19:57:26.461Z,33.85
2022-11-17T20:00:29.145Z,33.83
2022-11-17T20:03:34.721Z,33.67
2022-11-17T20:06:38.670Z,34.10
2022-11-17T20:09:40.962Z,35.35
2022-11-17T20:12:43.893Z,42.20
2022-11-17T20:15:46.376Z,39.83
2022-11-17T20:18:53.058Z,35.07
2022-11-17T20:21:55.707Z,32.00
2022-11-17T20:25:03.198Z,30.77
2022-11-17T20:28:06.608Z,32.70
2022-11-17T20:31:21.969Z,35.97
2022-11-17T20:34:24.527Z,35.37
2022-11-17T20:37:28.211Z,63.95
2022-11-17T20:40:32.295Z,35.47
2022-11-17T20:43:35.605Z,33.50
2022-11-17T20:46:40.737Z,42.80
2022-11-17T20:49:43.624Z,36.13
2022-11-17T20:52:46.007Z,34.67
2022-11-17T20:55:48.771Z,36.78
2022-11-17T20:58:51.221Z,34.90
2022-11-17T21:01:53.849Z,37.45
2022-11-17T21:04:56.471Z,40.47
2022-11-17T21:07:58.831Z,36.80
2022-11-17T21:11:03.195Z,39.33
2022-11-17T21:14:07.191Z,35.17
2022-11-17T21:17:29.363Z,33.83
2022-11-17T21:20:33.706Z,35.27
2022-11-17T21:23:37.560Z,35.78
2022-11-17T21:26:40.384Z,34.70
2022-11-17T21:29:43.375Z,33.95
2022-11-17T21:32:45.564Z,34.03
2022-11-17T21:35:47.795Z,33.63
2022-11-17T21:38:50.409Z,35.38
2022-11-17T21:41:52.675Z,33.92
2022-11-17T21:44:55.001Z,34.13
2022-11-17T21:47:59.565Z,32.55
2022-11-17T21:51:02.946Z,31.80
2022-11-17T21:54:07.673Z,31.58
2022-11-17T21:57:10.047Z,31.83
2022-11-17T22:00:12.540Z,32.22
2022-11-17T22:03:14.955Z,32.65
2022-11-17T22:06:19.093Z,31.73
2022-11-17T22:09:21.232Z,30.60
2022-11-17T22:12:23.390Z,30.73
2022-11-17T22:15:25.534Z,32.53
2022-11-17T22:18:27.666Z,34.00
2022-11-17T22:21:29.951Z,32.83
2022-11-17T22:24:32.091Z,33.28
2022-11-17T22:27:34.232Z,34.85
2022-11-17T22:30:38.809Z,33.42
2022-11-17T22:33:44.351Z,33.03
2022-11-17T22:36:46.752Z,31.93
2022-11-17T22:39:48.911Z,31.15
2022-11-17T22:42:52.737Z,31.88
2022-11-17T22:45:54.976Z,32.33
2022-11-17T22:48:57.316Z,36.10
2022-11-17T22:52:05.878Z,35.50
2022-11-17T22:55:08.362Z,34.65
2022-11-17T22:58:10.647Z,33.97
2022-11-17T23:01:12.825Z,33.90
2022-11-17T23:04:16.395Z,33.38
2022-11-17T23:07:18.635Z,33.63
2022-11-17T23:10:21.578Z,34.72
2022-11-17T23:13:23.687Z,35.35
2022-11-17T23:16:25.880Z,36.58
2022-11-17T23:19:27.994Z,38.65
2022-11-17T23:22:30.924Z,39.77
2022-11-17T23:25:33.341Z,41.63
2022-11-17T23:28:35.939Z,40.20
2022-11-17T23:31:38.096Z,39.67
2022-11-17T23:34:40.296Z,37.35
2022-11-17T23:37:42.575Z,37.07
2022-11-17T23:40:44.660Z,37.25
2022-11-17T23:43:49.277Z,38.78
2022-11-17T23:46:51.443Z,37.40
2022-11-17T23:49:53.642Z,36.30
2022-11-17T23:52:55.749Z,37.63
2022-11-17T23:55:58.100Z,36.97
2022-11-17T23:59:00.453Z,37.65
